Airfield :
LOGIN :

Register | Disclaimer

   EN    FR    IT 

 










Legend :    VFR   Marginal VFR   IFR   Intensive IFR   Very Intensive IFR
Visi :
Ceiling :
>= 8 km
>= 3000ft
5 to 8 km
1000 to 3000 ft
1500m to 5 km
500 to 1000 ft
800 to 1500m
200 to 500 ft
< 800m
< 200 ft
Symbols :   Thunderstorms  Fog  Heavy snow  Heavy precipitations  Wind > 20 kt
SIGMETs :     Misc.  Thunderstorms  Icing  Turbulence  Mountain Waves  Volcanic Ashes







- Airport Elevation : 124 ft
- IATA code : AVN
- Download approach charts


LFMV - Avignon Caumont

CURRENT METAR :
  • 172030Z AUTO VRB03KT CAVOK 22/16 Q1013 NOSIG

EXPIRED METARs :
  • 172000Z AUTO VRB02KT CAVOK 23/16 Q1014 NOSIG
  • 171930Z AUTO 26005KT CAVOK 24/16 Q1013 NOSIG
  • 171900Z AUTO 25008KT 230V290 CAVOK 25/16 Q1013 NOSIG
  • 171830Z AUTO 25009KT CAVOK 26/17 Q1013 NOSIG

TAF TAF LFMV
Valid from the 17 at 15:00 until the 18 at 15:00 UTC


171400Z 1715/1815 33010KT CAVOK
BECMG 1716/1717 21008KT
BECMG 1722/1723 VRB05KT
BECMG 1803/1804 36010KT
BECMG 1807/1808 34015G25KT
ATIS : +33 4 90 84 32 84
No reported NOTAMs for that airfield.



MET'MAP, your aeronautical weather chart ! - Copyright ORBIFLY December 2007 - Disclaimer

ORBIFLY MET'MAP TEAM :

Programming & Development : Alexandra Zaïnal
Concept & Development : Baudouin d'Aumeries
Co-Development & Prog : Marc-Olivier Méhu
Technical & hardware support : Manuel Goepfert

Contact : metmap@orbifly.com




SOURCES & CREDITS :

   NOAA